createdAt,value
2023-01-13T00:01:14.060Z,6.50
2023-01-13T00:03:41.258Z,6.54
2023-01-13T00:06:09.874Z,6.50
2023-01-13T00:08:36.446Z,6.54
2023-01-13T00:11:03.022Z,6.62
2023-01-13T00:13:31.794Z,6.63
2023-01-13T00:16:05.713Z,6.66
2023-01-13T00:18:33.315Z,6.60
2023-01-13T00:21:14.759Z,6.59
2023-01-13T00:23:42.162Z,6.64
2023-01-13T00:26:18.150Z,6.63
2023-01-13T00:28:44.990Z,6.65
2023-01-13T00:31:20.737Z,6.66
2023-01-13T00:33:49.246Z,6.64
2023-01-13T00:36:17.534Z,6.66
2023-01-13T00:38:44.525Z,6.65
2023-01-13T00:41:13.660Z,6.68
2023-01-13T00:43:41.048Z,6.67
2023-01-13T00:46:10.075Z,6.69
2023-01-13T00:48:37.860Z,6.71
2023-01-13T00:51:18.103Z,6.71
2023-01-13T00:53:47.390Z,6.74
2023-01-13T00:56:38.428Z,6.75
2023-01-13T00:59:06.187Z,6.80
2023-01-13T01:01:33.164Z,6.71
2023-01-13T01:03:59.813Z,6.74
2023-01-13T01:06:27.564Z,6.74
2023-01-13T01:08:55.918Z,6.68
2023-01-13T01:11:24.889Z,6.71
2023-01-13T01:13:52.747Z,6.70
2023-01-13T01:16:21.666Z,6.62
2023-01-13T01:18:50.693Z,6.66
2023-01-13T01:21:18.310Z,6.64
2023-01-13T01:23:45.556Z,6.65
2023-01-13T01:26:15.710Z,6.65
2023-01-13T01:28:43.163Z,6.62
2023-01-13T01:31:14.016Z,6.65
2023-01-13T01:33:41.256Z,6.69
2023-01-13T01:36:08.857Z,6.74
2023-01-13T01:38:35.528Z,6.69
2023-01-13T01:41:02.172Z,6.68
2023-01-13T01:43:59.261Z,6.71
2023-01-13T01:46:28.192Z,6.69
2023-01-13T01:49:01.171Z,6.74
2023-01-13T01:51:31.498Z,6.69
2023-01-13T01:54:01.237Z,6.68
2023-01-13T01:56:27.899Z,6.70
2023-01-13T01:58:54.767Z,6.67
2023-01-13T02:01:21.595Z,6.66
2023-01-13T02:04:05.387Z,6.69
2023-01-13T02:06:32.033Z,6.71
2023-01-13T02:08:59.503Z,6.65
2023-01-13T02:11:50.174Z,6.65
2023-01-13T02:14:17.448Z,6.59
2023-01-13T02:17:06.909Z,6.56
2023-01-13T02:20:19.325Z,6.43
2023-01-13T02:22:54.650Z,6.34
2023-01-13T02:25:48.559Z,6.22
2023-01-13T02:29:06.735Z,6.25
2023-01-13T02:31:44.846Z,6.25
2023-01-13T02:34:19.031Z,6.15
2023-01-13T02:36:59.917Z,6.10
2023-01-13T02:39:52.334Z,6.08
2023-01-13T02:42:45.811Z,6.09
2023-01-13T02:45:26.945Z,6.21
2023-01-13T02:47:56.636Z,6.17
2023-01-13T02:50:47.911Z,6.11
2023-01-13T02:53:27.983Z,6.13
2023-01-13T02:55:58.454Z,6.19
2023-01-13T02:58:28.950Z,6.26
2023-01-13T03:00:55.522Z,6.20
2023-01-13T03:03:22.103Z,6.14
2023-01-13T03:05:52.304Z,6.20
2023-01-13T03:08:32.213Z,6.23
2023-01-13T03:11:05.825Z,6.25
2023-01-13T03:13:59.638Z,6.20
2023-01-13T03:16:40.740Z,6.27
2023-01-13T03:19:25.117Z,6.26
2023-01-13T03:21:56.629Z,6.32
2023-01-13T03:24:49.166Z,6.26
2023-01-13T03:27:32.584Z,6.20
2023-01-13T03:30:17.126Z,6.21
2023-01-13T03:32:47.733Z,6.25
2023-01-13T03:35:32.430Z,6.26
2023-01-13T03:38:16.728Z,6.18
2023-01-13T03:40:51.172Z,6.19
2023-01-13T03:43:50.297Z,6.19
2023-01-13T03:46:26.662Z,6.22
2023-01-13T03:48:56.476Z,6.18
2023-01-13T03:51:26.342Z,6.20
2023-01-13T03:53:58.275Z,6.14
2023-01-13T03:56:37.989Z,6.20
2023-01-13T03:59:10.197Z,6.18
2023-01-13T04:01:47.032Z,6.20
2023-01-13T04:04:21.293Z,6.22
2023-01-13T04:06:55.525Z,6.30
2023-01-13T04:09:36.616Z,6.29
2023-01-13T04:12:17.556Z,6.38
2023-01-13T04:14:45.190Z,6.34
2023-01-13T04:17:12.175Z,6.41
2023-01-13T04:19:38.611Z,6.37
2023-01-13T04:22:05.017Z,6.30
2023-01-13T04:24:31.442Z,6.26
2023-01-13T04:26:58.130Z,6.27
2023-01-13T04:29:24.584Z,6.36
2023-01-13T04:31:51.009Z,6.33
2023-01-13T04:34:17.502Z,6.37
2023-01-13T04:36:44.963Z,6.38
2023-01-13T04:39:11.510Z,6.45
2023-01-13T04:41:56.673Z,6.35
2023-01-13T04:44:23.113Z,6.39
2023-01-13T04:46:49.554Z,6.38
2023-01-13T04:49:16.066Z,6.39
2023-01-13T04:51:42.577Z,6.41
2023-01-13T04:54:12.199Z,6.46
2023-01-13T04:56:38.623Z,6.53
2023-01-13T04:59:05.107Z,6.49
2023-01-13T05:01:31.661Z,6.50
2023-01-13T05:03:58.178Z,6.59
2023-01-13T05:06:24.610Z,6.54
2023-01-13T05:08:51.102Z,6.53
2023-01-13T05:11:36.254Z,6.55
2023-01-13T05:14:21.110Z,6.51
2023-01-13T05:17:00.454Z,6.45
2023-01-13T05:19:32.317Z,6.42
2023-01-13T05:22:18.453Z,6.39
2023-01-13T05:25:03.696Z,6.41
2023-01-13T05:27:31.149Z,6.38
2023-01-13T05:29:57.697Z,6.37
2023-01-13T05:32:25.657Z,6.43
2023-01-13T05:34:52.149Z,6.49
2023-01-13T05:37:18.549Z,6.39
2023-01-13T05:40:03.718Z,6.49
2023-01-13T05:42:48.753Z,6.47
2023-01-13T05:45:15.255Z,6.44
2023-01-13T05:47:41.691Z,6.46
2023-01-13T05:50:09.135Z,6.39
2023-01-13T05:52:35.649Z,6.33
2023-01-13T05:55:02.152Z,6.41
2023-01-13T05:57:28.665Z,6.49
2023-01-13T05:59:55.153Z,6.52
2023-01-13T06:02:21.630Z,6.42
2023-01-13T06:04:48.160Z,6.51
2023-01-13T06:07:14.733Z,6.47
2023-01-13T06:09:41.138Z,6.48
2023-01-13T06:12:10.476Z,6.37
2023-01-13T06:14:42.946Z,6.46
2023-01-13T06:17:11.195Z,6.46
2023-01-13T06:19:37.705Z,6.48
2023-01-13T06:22:13.781Z,6.39
2023-01-13T06:24:40.210Z,6.43
2023-01-13T06:27:08.565Z,6.46
2023-01-13T06:29:35.204Z,6.45
2023-01-13T06:32:07.131Z,6.54
2023-01-13T06:34:35.539Z,6.61
2023-01-13T06:37:03.704Z,6.60
2023-01-13T06:39:31.139Z,6.52
2023-01-13T06:42:17.352Z,6.61
2023-01-13T06:44:45.527Z,6.61
2023-01-13T06:47:12.034Z,6.71
2023-01-13T06:49:38.473Z,6.56
2023-01-13T06:52:05.155Z,6.60
2023-01-13T06:54:31.853Z,6.57
2023-01-13T06:56:58.299Z,6.64
2023-01-13T06:59:25.173Z,6.64
2023-01-13T07:01:51.781Z,6.63
2023-01-13T07:04:18.864Z,6.70
2023-01-13T07:06:45.355Z,6.75
2023-01-13T07:09:11.819Z,6.68
2023-01-13T07:11:38.247Z,6.70
2023-01-13T07:14:23.500Z,6.69
2023-01-13T07:16:52.168Z,6.73
2023-01-13T07:19:23.598Z,6.77
2023-01-13T07:21:53.125Z,6.75
2023-01-13T07:24:19.973Z,6.62
2023-01-13T07:26:46.581Z,6.58
2023-01-13T07:29:13.051Z,6.59
2023-01-13T07:31:39.891Z,6.59
2023-01-13T07:34:07.311Z,6.61
2023-01-13T07:36:33.814Z,6.59
2023-01-13T07:39:00.243Z,6.69
2023-01-13T07:41:45.602Z,6.66
2023-01-13T07:44:12.245Z,6.82
2023-01-13T07:46:39.379Z,6.94
2023-01-13T07:49:06.842Z,6.82
2023-01-13T07:54:14.917Z,6.90
2023-01-13T07:56:41.333Z,6.78
2023-01-13T07:59:07.767Z,6.70
2023-01-13T08:01:34.296Z,6.69
2023-01-13T08:04:00.964Z,6.78
2023-01-13T08:06:27.456Z,6.81
2023-01-13T08:08:54.148Z,6.85
2023-01-13T08:11:23.388Z,6.94
2023-01-13T08:13:50.346Z,6.89
2023-01-13T08:16:16.901Z,6.87
2023-01-13T08:18:43.484Z,6.83
2023-01-13T08:21:12.941Z,6.93
2023-01-13T08:23:40.480Z,6.73
2023-01-13T08:26:10.423Z,6.65
2023-01-13T08:28:37.711Z,6.56
2023-01-13T08:31:06.317Z,6.56
2023-01-13T08:33:33.392Z,6.60
2023-01-13T08:36:03.269Z,6.62
2023-01-13T08:38:29.781Z,6.59
2023-01-13T08:40:56.287Z,6.44
2023-01-13T08:43:22.729Z,6.37
2023-01-13T08:46:00.972Z,6.37
2023-01-13T08:48:31.291Z,6.32
2023-01-13T08:51:06.320Z,6.43
2023-01-13T08:53:32.825Z,6.45
2023-01-13T08:55:59.261Z,6.44
2023-01-13T08:58:25.735Z,6.51
2023-01-13T09:00:52.284Z,6.54
2023-01-13T09:03:18.978Z,6.54
2023-01-13T09:05:45.505Z,6.54
2023-01-13T09:08:12.475Z,6.65
2023-01-13T09:10:40.383Z,6.69
2023-01-13T09:13:12.910Z,6.67
2023-01-13T09:15:45.726Z,6.61
2023-01-13T09:18:12.930Z,6.64
2023-01-13T09:20:39.734Z,6.62
2023-01-13T09:23:10.035Z,6.75
2023-01-13T09:25:37.372Z,6.69
2023-01-13T09:28:05.011Z,6.70
2023-01-13T09:30:31.593Z,6.85
2023-01-13T09:33:18.050Z,6.89
2023-01-13T09:35:44.499Z,7.12
2023-01-13T09:38:11.013Z,7.00
2023-01-13T09:40:40.233Z,6.83
2023-01-13T09:43:42.165Z,6.93
2023-01-13T09:46:36.745Z,6.87
2023-01-13T09:49:03.816Z,6.75
2023-01-13T09:51:38.918Z,6.84
2023-01-13T09:54:13.574Z,6.80
2023-01-13T09:56:40.135Z,6.90
2023-01-13T09:59:11.180Z,6.89
2023-01-13T10:01:58.428Z,6.96
2023-01-13T10:04:25.469Z,6.89
2023-01-13T10:06:56.273Z,6.89
2023-01-13T10:09:48.263Z,6.82
2023-01-13T10:12:42.762Z,6.75
2023-01-13T10:15:17.864Z,6.75
2023-01-13T10:17:55.855Z,6.88
2023-01-13T10:20:49.562Z,6.83
2023-01-13T10:23:50.453Z,6.90
2023-01-13T10:26:25.158Z,7.05
2023-01-13T10:28:53.834Z,7.12
2023-01-13T10:31:22.889Z,7.11
2023-01-13T10:34:00.939Z,7.27
2023-01-13T10:36:27.936Z,7.26
2023-01-13T10:39:08.307Z,7.17
2023-01-13T10:41:36.485Z,7.13
2023-01-13T10:44:16.067Z,7.26
2023-01-13T10:46:54.335Z,7.39
2023-01-13T10:49:36.596Z,7.33
2023-01-13T10:52:23.687Z,7.48
2023-01-13T10:54:54.523Z,7.32
2023-01-13T10:57:24.079Z,7.48
2023-01-13T10:59:51.091Z,7.33
2023-01-13T11:02:32.788Z,7.20
2023-01-13T11:05:09.322Z,7.36
2023-01-13T11:07:40.105Z,7.17
2023-01-13T11:10:09.619Z,7.04
2023-01-13T11:13:02.665Z,7.03
2023-01-13T11:15:40.714Z,7.20
2023-01-13T11:18:30.243Z,7.05
2023-01-13T11:20:58.827Z,6.74
2023-01-13T11:23:32.875Z,6.70
2023-01-13T11:26:11.325Z,7.20
2023-01-13T11:28:49.973Z,7.18
2023-01-13T11:31:27.343Z,7.65
2023-01-13T11:33:59.717Z,8.20
2023-01-13T11:36:36.464Z,7.71
2023-01-13T11:39:16.313Z,7.41
2023-01-13T11:41:47.400Z,7.29
2023-01-13T11:44:35.943Z,7.11
2023-01-13T11:47:02.758Z,7.03
2023-01-13T11:49:32.297Z,6.70
2023-01-13T11:52:14.002Z,6.24
2023-01-13T11:54:59.339Z,5.51
2023-01-13T11:57:47.232Z,5.36
2023-01-13T12:00:28.997Z,4.90
2023-01-13T12:03:23.506Z,4.73
2023-01-13T12:06:08.364Z,4.74
2023-01-13T12:08:48.438Z,4.46
2023-01-13T12:11:27.005Z,4.32
2023-01-13T12:14:08.948Z,4.62
2023-01-13T12:16:41.296Z,4.97
2023-01-13T12:19:21.714Z,5.33
2023-01-13T12:21:59.153Z,6.10
2023-01-13T12:24:39.461Z,6.17
2023-01-13T12:27:10.975Z,6.19
2023-01-13T12:29:38.844Z,6.11
2023-01-13T12:32:11.391Z,6.24
2023-01-13T12:35:25.811Z,5.97
2023-01-13T12:38:03.556Z,6.20
2023-01-13T12:40:48.132Z,6.22
2023-01-13T12:43:38.991Z,6.60
2023-01-13T12:46:23.921Z,6.50
2023-01-13T12:48:59.399Z,6.47
2023-01-13T12:51:35.650Z,7.08
2023-01-13T12:54:23.636Z,7.42
2023-01-13T12:56:50.213Z,6.96
2023-01-13T12:59:16.651Z,7.14
2023-01-13T13:01:45.602Z,7.63
2023-01-13T13:04:14.468Z,7.83
2023-01-13T13:06:52.759Z,7.84
2023-01-13T13:09:29.018Z,7.82
2023-01-13T13:11:58.385Z,7.73
2023-01-13T13:14:36.722Z,7.26
2023-01-13T13:17:31.691Z,6.96
2023-01-13T13:20:00.117Z,6.73
2023-01-13T13:22:26.511Z,6.41
2023-01-13T13:24:56.162Z,6.34
2023-01-13T13:27:26.478Z,6.31
2023-01-13T13:30:02.078Z,6.61
2023-01-13T13:32:50.642Z,6.60
2023-01-13T13:35:51.711Z,6.64
2023-01-13T13:38:52.240Z,6.63
2023-01-13T13:41:40.732Z,6.64
2023-01-13T13:44:51.363Z,6.42
2023-01-13T13:47:17.898Z,6.66
2023-01-13T13:49:52.782Z,7.21
2023-01-13T13:52:27.324Z,7.21
2023-01-13T13:54:58.024Z,6.95
2023-01-13T13:57:39.699Z,7.09
2023-01-13T14:00:19.085Z,7.32
2023-01-13T14:02:54.601Z,7.33
2023-01-13T14:05:24.618Z,7.62
2023-01-13T14:07:58.089Z,7.32
2023-01-13T14:10:29.939Z,7.33
2023-01-13T14:12:56.383Z,7.40
2023-01-13T14:15:44.092Z,7.19
2023-01-13T14:18:18.332Z,6.99
2023-01-13T14:20:53.483Z,6.73
2023-01-13T14:23:24.901Z,6.41
2023-01-13T14:25:52.391Z,6.42
2023-01-13T14:28:26.750Z,6.64
2023-01-13T14:30:54.727Z,6.86
2023-01-13T14:33:35.273Z,6.93
2023-01-13T14:36:13.732Z,7.23
2023-01-13T14:38:41.614Z,7.68
2023-01-13T14:41:31.292Z,7.05
2023-01-13T14:44:00.108Z,7.06
2023-01-13T14:46:44.468Z,7.16
2023-01-13T14:49:26.868Z,6.43
2023-01-13T14:51:54.112Z,6.16
2023-01-13T14:54:42.992Z,5.91
2023-01-13T14:57:27.300Z,5.70
2023-01-13T14:59:59.648Z,5.64
2023-01-13T15:02:29.150Z,5.60
2023-01-13T15:05:18.826Z,5.74
2023-01-13T15:07:54.388Z,5.67
2023-01-13T15:10:24.849Z,5.54
2023-01-13T15:12:54.381Z,5.23
2023-01-13T15:15:34.478Z,5.18
2023-01-13T15:18:02.449Z,5.19
2023-01-13T15:20:29.331Z,5.23
2023-01-13T15:22:57.832Z,5.18
2023-01-13T15:25:24.429Z,5.08
2023-01-13T15:27:52.930Z,5.07
2023-01-13T15:30:25.022Z,4.96
2023-01-13T15:32:52.813Z,4.98
2023-01-13T15:35:20.585Z,4.96
2023-01-13T15:37:48.574Z,4.95
2023-01-13T15:40:41.483Z,4.74
2023-01-13T15:43:32.682Z,4.78
2023-01-13T15:46:38.848Z,4.64
2023-01-13T15:49:23.399Z,4.56
2023-01-13T15:51:50.091Z,4.55
2023-01-13T15:54:16.817Z,4.48
2023-01-13T15:56:43.401Z,4.35
2023-01-13T15:59:17.372Z,4.28
2023-01-13T16:01:44.585Z,4.27
2023-01-13T16:04:11.054Z,4.22
2023-01-13T16:06:37.526Z,4.20
2023-01-13T16:09:05.026Z,4.13
2023-01-13T16:11:31.541Z,4.08
2023-01-13T16:13:58.200Z,4.13
2023-01-13T16:16:26.651Z,4.16
2023-01-13T16:18:54.005Z,4.16
2023-01-13T16:21:21.934Z,4.16
2023-01-13T16:23:49.964Z,4.18
2023-01-13T16:26:22.533Z,4.16
2023-01-13T16:28:50.446Z,4.14
2023-01-13T16:31:27.429Z,4.17
2023-01-13T16:33:54.092Z,4.17
2023-01-13T16:36:21.289Z,4.13
2023-01-13T16:38:49.561Z,4.12
2023-01-13T16:41:16.311Z,4.12
2023-01-13T16:43:43.696Z,4.16
2023-01-13T16:46:18.082Z,4.15
2023-01-13T16:48:44.803Z,4.14
2023-01-13T16:51:11.295Z,4.16
2023-01-13T16:53:37.744Z,4.14
2023-01-13T16:56:16.242Z,4.13
2023-01-13T16:58:42.672Z,4.17
2023-01-13T17:01:24.842Z,4.22
2023-01-13T17:03:51.653Z,4.21
2023-01-13T17:06:22.536Z,4.33
2023-01-13T17:08:48.997Z,4.33
2023-01-13T17:11:15.458Z,4.36
2023-01-13T17:13:42.083Z,4.33
2023-01-13T17:16:17.927Z,4.40
2023-01-13T17:18:44.896Z,4.42
2023-01-13T17:21:11.324Z,4.40
2023-01-13T17:23:37.827Z,4.47
2023-01-13T17:26:04.635Z,4.50
2023-01-13T17:28:31.096Z,4.51
2023-01-13T17:30:57.550Z,4.43
2023-01-13T17:33:24.066Z,4.34
2023-01-13T17:35:50.549Z,4.23
2023-01-13T17:38:17.122Z,3.93
2023-01-13T17:40:43.531Z,3.83
2023-01-13T17:43:09.944Z,3.73
2023-01-13T17:45:40.648Z,3.55
2023-01-13T17:48:07.366Z,3.46
2023-01-13T17:50:34.845Z,3.50
2023-01-13T17:53:01.441Z,3.54
2023-01-13T17:55:27.902Z,3.58
2023-01-13T17:57:54.331Z,3.49
2023-01-13T18:00:21.040Z,3.44
2023-01-13T18:02:47.476Z,3.35
2023-01-13T18:05:13.976Z,3.41
2023-01-13T18:07:40.406Z,3.32
2023-01-13T18:10:07.226Z,3.39
2023-01-13T18:12:34.823Z,3.40
2023-01-13T18:15:01.292Z,3.41
2023-01-13T18:17:27.742Z,3.40
2023-01-13T18:20:12.643Z,3.42
2023-01-13T18:23:14.575Z,3.39
2023-01-13T18:25:59.338Z,3.39
2023-01-13T18:28:25.813Z,3.36
2023-01-13T18:30:52.390Z,3.29
2023-01-13T18:33:18.845Z,3.26
2023-01-13T18:35:45.308Z,3.22
2023-01-13T18:38:14.957Z,3.20
2023-01-13T18:40:43.810Z,3.13
2023-01-13T18:43:10.517Z,3.21
2023-01-13T18:45:37.056Z,3.22
2023-01-13T18:48:04.718Z,3.20
2023-01-13T18:50:32.503Z,3.30
2023-01-13T18:52:58.972Z,3.32
2023-01-13T18:55:25.698Z,3.33
2023-01-13T18:57:53.049Z,3.40
2023-01-13T19:00:21.451Z,3.48
2023-01-13T19:02:50.749Z,3.49
2023-01-13T19:05:17.897Z,3.38
2023-01-13T19:07:50.358Z,3.41
2023-01-13T19:10:17.466Z,3.41
2023-01-13T19:12:43.898Z,3.39
2023-01-13T19:15:10.851Z,3.37
2023-01-13T19:17:37.337Z,3.50
2023-01-13T19:20:05.122Z,3.49
2023-01-13T19:22:34.563Z,3.47
2023-01-13T19:25:02.374Z,3.47
2023-01-13T19:27:29.615Z,3.50
2023-01-13T19:30:00.822Z,3.45
2023-01-13T19:32:30.717Z,3.42
2023-01-13T19:34:59.473Z,3.48
2023-01-13T19:37:30.159Z,3.44
2023-01-13T19:39:58.145Z,3.44
2023-01-13T19:42:43.058Z,3.43
2023-01-13T19:45:26.356Z,3.45
2023-01-13T19:47:53.198Z,3.34
2023-01-13T19:50:19.778Z,3.31
2023-01-13T19:52:46.459Z,3.33
2023-01-13T19:55:13.076Z,3.33
2023-01-13T19:57:40.445Z,3.35
2023-01-13T20:00:09.316Z,3.33
2023-01-13T20:02:47.902Z,3.34
2023-01-13T20:05:21.019Z,3.36
2023-01-13T20:07:49.101Z,3.41
2023-01-13T20:10:17.652Z,3.41
2023-01-13T20:12:44.318Z,3.42
2023-01-13T20:15:11.310Z,3.47
2023-01-13T20:17:37.998Z,3.41
2023-01-13T20:20:04.932Z,3.29
2023-01-13T20:22:31.489Z,3.33
2023-01-13T20:24:58.048Z,3.30
2023-01-13T20:27:24.675Z,3.36
2023-01-13T20:29:51.507Z,3.25
2023-01-13T20:32:18.132Z,3.34
2023-01-13T20:34:44.779Z,3.35
2023-01-13T20:37:11.307Z,3.32
2023-01-13T20:39:37.960Z,3.32
2023-01-13T20:42:23.117Z,3.34
2023-01-13T20:44:49.670Z,3.37
2023-01-13T20:47:16.707Z,3.38
2023-01-13T20:49:43.241Z,3.37
2023-01-13T20:52:10.608Z,3.25
2023-01-13T20:54:38.253Z,3.27
2023-01-13T20:57:07.634Z,3.28
2023-01-13T20:59:34.303Z,3.25
2023-01-13T21:02:01.022Z,3.20
2023-01-13T21:04:28.805Z,3.17
2023-01-13T21:06:56.278Z,3.23
2023-01-13T21:09:24.277Z,3.13
2023-01-13T21:12:09.242Z,3.09
2023-01-13T21:14:54.150Z,3.09
2023-01-13T21:17:39.743Z,3.08
2023-01-13T21:20:08.469Z,2.96
2023-01-13T21:22:35.911Z,2.96
2023-01-13T21:25:03.864Z,2.98
2023-01-13T21:27:31.332Z,3.00
2023-01-13T21:29:57.967Z,2.96
2023-01-13T21:32:24.630Z,2.96
2023-01-13T21:34:51.154Z,2.95
2023-01-13T21:37:18.569Z,3.00
2023-01-13T21:39:45.391Z,3.07
2023-01-13T21:42:32.893Z,3.01
2023-01-13T21:45:18.355Z,3.06
2023-01-13T21:47:52.182Z,3.11
2023-01-13T21:50:21.895Z,3.11
2023-01-13T21:52:50.141Z,3.00
2023-01-13T21:55:17.089Z,2.97
2023-01-13T21:57:48.064Z,2.98
2023-01-13T22:00:15.806Z,2.95
2023-01-13T22:02:42.880Z,3.00
2023-01-13T22:05:11.038Z,3.03
2023-01-13T22:07:38.734Z,3.05
2023-01-13T22:10:08.159Z,3.04
2023-01-13T22:12:35.149Z,2.94
2023-01-13T22:15:02.042Z,2.88
2023-01-13T22:17:31.421Z,2.75
2023-01-13T22:20:00.261Z,2.82
2023-01-13T22:22:27.622Z,2.87
2023-01-13T22:24:54.937Z,2.91
2023-01-13T22:27:26.354Z,2.94
2023-01-13T22:29:53.335Z,3.02
2023-01-13T22:32:21.017Z,3.09
2023-01-13T22:34:48.611Z,3.09
2023-01-13T22:37:15.245Z,3.11
2023-01-13T22:39:41.938Z,3.16
2023-01-13T22:42:10.202Z,3.17
2023-01-13T22:44:37.160Z,3.21
2023-01-13T22:47:03.798Z,3.22
2023-01-13T22:49:30.318Z,3.18
2023-01-13T22:51:57.149Z,3.16
2023-01-13T22:54:23.909Z,3.11
2023-01-13T22:56:50.732Z,3.11
2023-01-13T22:59:17.546Z,3.25
2023-01-13T23:01:44.032Z,3.32
2023-01-13T23:04:15.377Z,3.32
2023-01-13T23:06:42.107Z,3.32
2023-01-13T23:09:10.032Z,3.33
2023-01-13T23:11:36.901Z,3.42
2023-01-13T23:14:06.078Z,3.52
2023-01-13T23:16:34.993Z,3.61
2023-01-13T23:19:01.768Z,3.56
2023-01-13T23:21:31.539Z,3.57
2023-01-13T23:23:58.875Z,3.57
2023-01-13T23:26:26.599Z,3.50
2023-01-13T23:28:53.400Z,3.42
2023-01-13T23:31:21.938Z,3.42
2023-01-13T23:33:49.273Z,3.37
2023-01-13T23:36:19.013Z,3.33
2023-01-13T23:38:46.014Z,3.34
2023-01-13T23:41:15.471Z,3.38
2023-01-13T23:43:42.124Z,3.47
2023-01-13T23:46:12.419Z,3.52
2023-01-13T23:48:39.622Z,3.53
2023-01-13T23:51:09.178Z,3.53
2023-01-13T23:53:40.317Z,3.50
2023-01-13T23:56:10.579Z,3.49
2023-01-13T23:58:37.126Z,3.41
